Time;durP1;ratioP1;P1;durP2;ratioP2;P2;SDS_P1;SDS_P2;PMS_P1;PMS_P2;Temp;Humidity;BMP_temperature;BMP_pressure;BME280_temperature;BME280_humidity;BME280_pressure;Samples;Min_cycle;Max_cycle;Signal;HPM_P1;HPM_P2
2022/05/06 00:01:08;;;;;;;5.63;3.67;;;23.90;45.50;;;;;;5002742;28;90841;-66
2022/05/06 00:03:38;;;;;;;7.30;3.97;;;23.90;45.50;;;;;;5000370;28;89357;-64
2022/05/06 00:06:06;;;;;;;6.53;3.30;;;23.90;45.50;;;;;;5001425;28;88537;-65
2022/05/06 00:08:35;;;;;;;6.50;3.50;;;23.90;45.40;;;;;;5009634;28;89330;-65
2022/05/06 00:11:03;;;;;;;6.90;3.30;;;23.90;45.40;;;;;;5018047;28;89218;-64
2022/05/06 00:13:32;;;;;;;4.37;2.97;;;23.80;45.30;;;;;;5011564;28;88575;-64
2022/05/06 00:16:00;;;;;;;4.67;2.90;;;23.90;45.40;;;;;;5015810;28;88423;-65
2022/05/06 00:18:31;;;;;;;4.53;2.97;;;23.80;45.30;;;;;;5008295;28;91877;-65
2022/05/06 00:21:00;;;;;;;5.57;3.83;;;23.80;45.30;;;;;;5001637;28;88628;-65
2022/05/06 00:23:29;;;;;;;5.70;2.93;;;23.80;45.20;;;;;;5008237;28;89602;-65
2022/05/06 00:25:57;;;;;;;5.93;3.30;;;23.80;45.20;;;;;;5017094;28;88967;-64
2022/05/06 00:28:26;;;;;;;5.00;3.30;;;23.80;45.20;;;;;;5001721;28;89420;-64
2022/05/06 00:30:54;;;;;;;4.50;3.07;;;23.80;45.20;;;;;;5002149;28;89068;-65
2022/05/06 00:33:24;;;;;;;5.53;3.50;;;23.80;45.20;;;;;;5002334;28;92244;-65
2022/05/06 00:35:54;;;;;;;5.20;3.43;;;23.80;45.20;;;;;;5009104;28;88372;-65
2022/05/06 00:38:23;;;;;;;5.67;3.57;;;23.80;45.20;;;;;;5004931;28;89575;-65
2022/05/06 00:40:51;;;;;;;5.03;3.47;;;23.80;45.20;;;;;;5019497;28;89075;-65
2022/05/06 00:43:19;;;;;;;6.03;3.20;;;23.80;45.20;;;;;;5018461;28;91906;-65
2022/05/06 00:45:49;;;;;;;5.60;3.27;;;23.80;45.20;;;;;;5004642;28;88393;-65
2022/05/06 00:48:17;;;;;;;5.00;3.83;;;23.80;45.20;;;;;;5015397;28;90652;-65
2022/05/06 00:50:45;;;;;;;5.67;2.87;;;23.80;45.20;;;;;;5019755;28;89858;-65
2022/05/06 00:53:13;;;;;;;6.47;3.37;;;23.80;45.20;;;;;;4999823;28;89099;-65
2022/05/06 00:55:43;;;;;;;4.53;2.70;;;23.70;45.10;;;;;;5000702;28;88435;-65
2022/05/06 00:58:11;;;;;;;4.43;2.33;;;23.70;45.10;;;;;;4999804;28;89891;-65
2022/05/06 01:00:39;;;;;;;3.37;2.83;;;23.70;45.10;;;;;;5001400;28;91634;-65
2022/05/06 01:03:07;;;;;;;4.47;3.23;;;23.70;45.10;;;;;;5000261;28;88687;-65
2022/05/06 01:05:35;;;;;;;4.47;2.77;;;23.70;45.10;;;;;;5005378;28;88407;-65
2022/05/06 01:08:03;;;;;;;7.60;2.90;;;23.70;45.10;;;;;;5001332;28;89347;-65
2022/05/06 01:10:31;;;;;;;4.43;2.83;;;23.70;45.10;;;;;;5009604;28;90456;-65
2022/05/06 01:13:01;;;;;;;4.20;2.10;;;23.70;45.10;;;;;;5017100;28;90023;-65
2022/05/06 01:15:30;;;;;;;4.17;2.57;;;23.70;45.10;;;;;;4999703;28;88564;-65
2022/05/06 01:17:58;;;;;;;3.63;2.20;;;23.70;45.10;;;;;;5000196;28;88957;-64
2022/05/06 01:20:27;;;;;;;4.47;2.43;;;23.70;45.10;;;;;;5008929;28;90057;-65
2022/05/06 01:22:58;;;;;;;3.90;2.33;;;23.70;45.10;;;;;;5017400;28;90433;-66
2022/05/06 01:25:26;;;;;;;2.97;2.10;;;23.70;45.10;;;;;;5000188;28;88498;-64
2022/05/06 01:27:56;;;;;;;3.17;2.20;;;23.70;45.00;;;;;;4998179;28;90029;-65
2022/05/06 01:30:30;;;;;;;4.43;2.30;;;23.70;45.10;;;;;;4998523;28;89573;-65
2022/05/06 01:33:00;;;;;;;4.10;2.53;;;23.70;45.10;;;;;;5001052;28;88385;-64
2022/05/06 01:35:30;;;;;;;3.53;2.60;;;23.60;45.00;;;;;;5017775;28;88383;-65
2022/05/06 01:38:03;;;;;;;4.17;2.67;;;23.60;44.90;;;;;;5015893;28;90050;-65
2022/05/06 01:40:33;;;;;;;4.37;2.83;;;23.60;45.00;;;;;;5017900;27;90191;-66
2022/05/06 01:43:01;;;;;;;4.90;2.40;;;23.60;44.90;;;;;;5013194;28;89840;-65
2022/05/06 01:45:31;;;;;;;5.13;2.87;;;23.60;44.90;;;;;;5007695;28;88844;-65
2022/05/06 01:47:59;;;;;;;4.63;2.83;;;23.70;45.10;;;;;;5021587;28;89498;-65
2022/05/06 01:50:28;;;;;;;3.80;2.60;;;23.40;44.80;;;;;;5014135;28;91190;-65
2022/05/06 01:52:56;;;;;;;4.40;2.13;;;23.70;45.00;;;;;;5023872;28;91351;-65
2022/05/06 01:55:25;;;;;;;5.67;2.43;;;23.70;45.00;;;;;;5014757;28;88625;-65
2022/05/06 01:57:53;;;;;;;3.37;2.13;;;23.60;44.90;;;;;;5008372;28;89607;-65
2022/05/06 02:00:21;;;;;;;3.73;2.43;;;23.60;44.90;;;;;;5025699;28;88377;-65
2022/05/06 02:02:50;;;;;;;4.53;2.77;;;23.60;44.90;;;;;;5008881;28;88501;-65
2022/05/06 02:05:17;;;;;;;3.43;2.03;;;23.60;44.90;;;;;;5026157;28;88969;-65
2022/05/06 02:07:45;;;;;;;4.70;2.37;;;23.60;45.00;;;;;;5018159;28;90291;-64
2022/05/06 02:10:13;;;;;;;3.07;2.00;;;23.60;44.90;;;;;;5022304;28;88998;-65
2022/05/06 02:12:42;;;;;;;3.97;2.43;;;23.60;45.60;;;;;;5015980;28;90226;-65
2022/05/06 02:15:12;;;;;;;3.53;2.27;;;23.60;44.90;;;;;;5022029;28;88595;-65
2022/05/06 02:17:40;;;;;;;4.57;2.77;;;23.60;44.90;;;;;;5014476;28;90554;-64
2022/05/06 02:20:09;;;;;;;8.43;3.10;;;23.60;44.90;;;;;;5009246;28;88516;-65
2022/05/06 02:22:42;;;;;;;4.33;2.33;;;23.60;44.90;;;;;;5020248;28;88759;-65
2022/05/06 02:25:10;;;;;;;5.17;2.80;;;23.60;44.90;;;;;;5005869;28;88845;-65
2022/05/06 02:27:39;;;;;;;5.23;3.33;;;23.60;44.90;;;;;;5009886;28;92633;-65
2022/05/06 02:33:13;;;;;;;9.80;2.80;;;23.50;44.80;;;;;;5005469;28;89918;-65
2022/05/06 02:35:42;;;;;;;4.43;2.40;;;23.50;44.80;;;;;;5024898;28;88611;-65
2022/05/06 02:38:10;;;;;;;4.93;2.70;;;23.50;44.90;;;;;;5011742;28;89891;-65
2022/05/06 02:40:38;;;;;;;5.20;2.93;;;23.50;44.90;;;;;;5006314;28;92085;-65
2022/05/06 02:43:07;;;;;;;3.40;2.27;;;23.50;44.90;;;;;;5013455;28;90875;-66
2022/05/06 02:45:36;;;;;;;5.50;2.70;;;23.50;44.90;;;;;;5005582;28;88373;-65
2022/05/06 02:48:06;;;;;;;5.93;2.77;;;23.50;44.90;;;;;;5016937;28;89307;-65
2022/05/06 02:50:34;;;;;;;5.13;3.17;;;23.50;44.90;;;;;;5019385;28;92565;-65
2022/05/06 02:53:02;;;;;;;6.83;4.03;;;23.50;44.90;;;;;;5024969;28;88480;-65
2022/05/06 02:55:30;;;;;;;5.73;3.27;;;23.50;44.90;;;;;;5005078;28;88598;-65
2022/05/06 02:57:58;;;;;;;5.13;2.97;;;23.50;44.90;;;;;;5006423;28;89489;-65
2022/05/06 03:00:28;;;;;;;4.60;3.20;;;23.50;44.90;;;;;;5018812;28;89083;-64
2022/05/06 03:02:58;;;;;;;6.67;3.80;;;23.50;44.90;;;;;;5008223;28;88559;-65
2022/05/06 03:05:26;;;;;;;7.10;3.27;;;23.50;44.90;;;;;;5002280;28;88376;-65
2022/05/06 03:07:54;;;;;;;4.87;2.40;;;23.50;44.90;;;;;;5015673;28;89939;-65
2022/05/06 03:10:22;;;;;;;6.37;3.33;;;23.50;44.90;;;;;;5008255;27;88995;-64
2022/05/06 03:12:55;;;;;;;6.80;3.57;;;23.50;44.90;;;;;;5006945;28;88219;-65
2022/05/06 03:15:24;;;;;;;6.30;3.67;;;23.50;44.90;;;;;;5016736;28;88694;-64
2022/05/06 03:17:52;;;;;;;8.27;3.23;;;23.40;44.80;;;;;;5013091;28;89812;-65
2022/05/06 03:20:21;;;;;;;5.47;3.07;;;23.40;44.80;;;;;;5006647;28;91091;-66
2022/05/06 03:22:50;;;;;;;6.50;3.10;;;23.50;45.00;;;;;;5006325;28;89884;-65
2022/05/06 03:25:19;;;;;;;9.23;3.57;;;23.40;44.90;;;;;;5015672;28;88659;-66
2022/05/06 03:28:08;;;;;;;8.13;3.80;;;23.40;44.90;;;;;;5013990;28;90859;-66
2022/05/06 03:30:39;;;;;;;7.03;3.10;;;23.40;44.90;;;;;;5004288;28;90140;-66
2022/05/06 03:33:09;;;;;;;7.87;4.00;;;23.40;44.90;;;;;;5005222;28;88618;-64
2022/05/06 03:35:39;;;;;;;5.80;3.47;;;23.40;44.90;;;;;;5001104;27;89140;-65
2022/05/06 03:38:07;;;;;;;10.20;4.93;;;23.40;45.60;;;;;;5012713;28;88976;-66
2022/05/06 03:40:35;;;;;;;10.43;5.83;;;23.30;44.80;;;;;;5010087;28;90006;-65
2022/05/06 03:43:04;;;;;;;10.03;5.77;;;23.30;44.80;;;;;;5000887;28;88473;-64
2022/05/06 03:45:32;;;;;;;10.13;5.50;;;23.30;44.90;;;;;;5004986;28;88612;-66
2022/05/06 03:48:00;;;;;;;14.37;6.40;;;23.30;44.90;;;;;;4998768;28;89739;-66
2022/05/06 03:53:16;;;;;;;17.37;7.53;;;23.30;44.90;;;;;;5015948;28;88798;-65
2022/05/06 03:55:45;;;;;;;14.77;7.97;;;23.30;45.00;;;;;;5014898;28;88599;-66
2022/05/06 03:58:13;;;;;;;14.10;7.23;;;23.30;45.00;;;;;;5016979;28;90837;-66
2022/05/06 04:00:41;;;;;;;12.27;7.83;;;23.30;45.00;;;;;;5008174;28;90948;-65
2022/05/06 04:03:10;;;;;;;16.70;9.70;;;23.30;45.00;;;;;;5010158;28;88623;-65
2022/05/06 04:05:38;;;;;;;16.97;8.80;;;23.30;45.00;;;;;;5007753;28;88932;-65
2022/05/06 04:08:07;;;;;;;19.17;9.47;;;23.30;45.00;;;;;;5018105;28;89456;-65
2022/05/06 04:10:36;;;;;;;22.13;8.97;;;23.30;45.00;;;;;;4999833;28;90066;-65
2022/05/06 04:13:04;;;;;;;26.13;10.73;;;23.30;45.00;;;;;;5014713;28;89780;-65
2022/05/06 04:15:32;;;;;;;18.33;10.90;;;23.30;45.00;;;;;;5002637;28;88677;-65
2022/05/06 04:18:01;;;;;;;18.77;10.30;;;23.30;45.00;;;;;;5009973;28;89568;-65
2022/05/06 04:23:30;;;;;;;20.23;10.63;;;23.30;45.00;;;;;;5013666;28;88589;-65
2022/05/06 04:26:00;;;;;;;24.77;11.80;;;23.30;45.00;;;;;;5000940;28;88657;-64
2022/05/06 04:28:28;;;;;;;26.70;12.87;;;23.30;45.00;;;;;;5011942;28;90359;-66
2022/05/06 04:30:56;;;;;;;21.60;12.63;;;23.30;45.10;;;;;;5015361;28;89316;-65
2022/05/06 04:33:25;;;;;;;31.10;14.23;;;23.20;45.00;;;;;;5015301;28;88544;-64
2022/05/06 04:35:54;;;;;;;30.23;14.47;;;23.30;45.10;;;;;;5001270;28;88726;-65
2022/05/06 04:38:22;;;;;;;27.57;14.37;;;23.30;45.10;;;;;;5006052;28;89589;-65
2022/05/06 04:40:51;;;;;;;36.03;16.80;;;23.30;45.10;;;;;;5011348;28;90436;-65
2022/05/06 04:43:20;;;;;;;33.27;17.43;;;23.30;45.10;;;;;;5006559;28;89009;-65
2022/05/06 04:45:49;;;;;;;37.47;20.10;;;23.20;45.00;;;;;;5006867;28;88528;-65
2022/05/06 04:48:17;;;;;;;34.40;19.23;;;23.30;45.10;;;;;;5020509;28;89670;-69
2022/05/06 04:50:45;;;;;;;37.60;20.03;;;23.20;45.00;;;;;;5013156;28;89733;-69
2022/05/06 04:53:13;;;;;;;40.40;20.67;;;23.20;45.10;;;;;;5014386;28;88614;-69
2022/05/06 04:55:42;;;;;;;45.70;22.97;;;23.20;45.10;;;;;;5017021;28;88425;-69
2022/05/06 04:58:10;;;;;;;49.00;23.40;;;23.20;45.10;;;;;;5017857;28;89318;-69
2022/05/06 05:00:40;;;;;;;42.83;20.90;;;23.20;45.10;;;;;;4998887;28;90145;-69
2022/05/06 05:03:08;;;;;;;37.77;20.20;;;23.20;45.20;;;;;;5010275;28;89819;-69
2022/05/06 05:05:36;;;;;;;41.40;21.33;;;23.10;45.20;;;;;;5009561;28;88661;-69
2022/05/06 05:08:08;;;;;;;43.53;21.37;;;23.10;45.30;;;;;;5010887;28;90584;-69
2022/05/06 05:10:36;;;;;;;47.70;24.07;;;23.20;45.60;;;;;;5012163;28;90063;-69
2022/05/06 05:13:04;;;;;;;41.43;21.50;;;23.10;45.50;;;;;;5007837;28;90638;-68
2022/05/06 05:15:32;;;;;;;43.47;23.13;;;23.10;45.50;;;;;;5013100;28;88807;-69
2022/05/06 05:18:02;;;;;;;42.00;22.37;;;23.10;45.50;;;;;;5010483;28;89394;-69
2022/05/06 05:20:30;;;;;;;42.87;21.50;;;23.20;45.70;;;;;;5013506;28;90105;-71
2022/05/06 05:22:58;;;;;;;49.70;23.97;;;23.20;45.60;;;;;;5005176;28;88535;-70
2022/05/06 05:25:26;;;;;;;46.30;23.23;;;23.20;45.70;;;;;;5007138;28;88408;-70
2022/05/06 05:27:54;;;;;;;45.73;23.17;;;23.20;45.70;;;;;;5013629;28;90721;-68
2022/05/06 05:30:22;;;;;;;46.73;22.93;;;23.20;45.80;;;;;;5014648;28;88624;-69
2022/05/06 05:32:50;;;;;;;37.87;21.63;;;23.30;45.90;;;;;;4998736;28;91427;-69
2022/05/06 05:35:19;;;;;;;37.90;20.27;;;23.30;46.00;;;;;;4998907;28;88355;-68
2022/05/06 05:37:47;;;;;;;46.47;22.30;;;23.30;46.00;;;;;;4997564;28;89663;-68
2022/05/06 05:40:15;;;;;;;43.60;22.47;;;23.30;46.10;;;;;;4997995;28;91611;-68
2022/05/06 05:42:43;;;;;;;42.67;21.47;;;23.30;46.10;;;;;;4998462;28;88530;-68
2022/05/06 05:50:43;;;;;;;34.80;19.60;;;23.30;46.30;;;;;;5008568;28;89058;-71
2022/05/06 05:53:11;;;;;;;32.60;17.93;;;23.30;46.30;;;;;;5008088;28;89346;-71
2022/05/06 05:55:39;;;;;;;36.10;18.43;;;23.30;46.50;;;;;;5006866;28;88764;-70
2022/05/06 05:58:07;;;;;;;35.00;17.03;;;23.30;46.50;;;;;;5005309;28;90400;-66
2022/05/06 06:00:36;;;;;;;34.60;17.20;;;23.30;46.60;;;;;;5013443;28;89014;-75
2022/05/06 06:03:04;;;;;;;28.67;15.03;;;23.30;46.60;;;;;;5003836;28;88819;-74
2022/05/06 06:05:32;;;;;;;30.87;15.17;;;23.40;46.80;;;;;;5015467;28;88849;-77
2022/05/06 06:08:01;;;;;;;28.13;14.13;;;23.40;46.90;;;;;;5008073;28;89861;-67
2022/05/06 06:10:33;;;;;;;28.50;13.70;;;23.50;47.70;;;;;;5017953;28;89209;-67
2022/05/06 06:13:05;;;;;;;28.63;14.50;;;23.50;47.20;;;;;;5016543;28;88607;-68
2022/05/06 06:15:33;;;;;;;24.03;13.73;;;23.50;47.20;;;;;;5005842;28;88498;-67
2022/05/06 06:18:01;;;;;;;23.63;12.77;;;23.50;47.30;;;;;;5009795;28;89475;-67
2022/05/06 06:20:29;;;;;;;22.03;11.13;;;23.50;47.30;;;;;;5014512;28;92290;-68
2022/05/06 06:22:57;;;;;;;31.30;11.23;;;23.50;47.30;;;;;;5016552;28;90822;-67
2022/05/06 06:25:27;;;;;;;20.97;11.60;;;23.50;47.40;;;;;;5012275;28;88725;-67
2022/05/06 06:27:55;;;;;;;16.70;10.13;;;23.60;47.50;;;;;;5017177;28;89327;-67
2022/05/06 06:30:23;;;;;;;23.17;10.40;;;23.60;47.50;;;;;;5009948;28;89576;-67
2022/05/06 06:32:52;;;;;;;21.20;9.93;;;23.60;47.50;;;;;;4999543;28;89697;-68
2022/05/06 06:35:22;;;;;;;20.87;9.73;;;23.70;47.50;;;;;;5017791;28;88483;-67
2022/05/06 06:37:50;;;;;;;20.37;8.80;;;23.70;47.50;;;;;;5021934;28;89495;-67
2022/05/06 06:40:18;;;;;;;17.27;9.37;;;23.80;47.50;;;;;;5022059;28;91660;-67
2022/05/06 06:42:47;;;;;;;16.40;8.37;;;23.80;47.50;;;;;;5020930;28;89275;-69
2022/05/06 06:45:15;;;;;;;19.57;9.30;;;23.80;47.50;;;;;;5008873;28;88682;-67
2022/05/06 06:47:44;;;;;;;17.60;9.50;;;23.90;47.40;;;;;;5001666;28;89420;-66
2022/05/06 06:50:12;;;;;;;16.97;9.00;;;23.90;47.40;;;;;;5001567;28;89111;-67
2022/05/06 06:52:40;;;;;;;16.53;8.60;;;23.90;47.30;;;;;;5014858;28;88900;-69
2022/05/06 06:55:09;;;;;;;13.77;8.03;;;23.90;47.20;;;;;;5021089;28;88667;-67
2022/05/06 06:57:37;;;;;;;16.27;8.33;;;23.90;47.20;;;;;;5027245;28;90625;-67
2022/05/06 07:00:11;;;;;;;14.40;7.93;;;23.90;47.10;;;;;;5039154;27;88670;-74
2022/05/06 07:02:40;;;;;;;16.83;7.43;;;24.00;47.10;;;;;;5022821;27;88362;-74
2022/05/06 07:05:11;;;;;;;13.30;6.83;;;23.90;47.00;;;;;;5022798;28;88562;-74
2022/05/06 07:13:35;;;;;;;14.03;7.63;;;23.90;46.90;;;;;;5021936;28;88812;-74
2022/05/06 07:16:05;;;;;;;12.60;6.90;;;23.90;46.90;;;;;;5016881;27;88665;-74
2022/05/06 07:18:33;;;;;;;10.47;6.53;;;23.90;46.90;;;;;;5021489;28;92901;-74
2022/05/06 07:21:01;;;;;;;20.23;7.07;;;23.90;46.90;;;;;;5020705;28;89639;-74
2022/05/06 07:23:29;;;;;;;12.73;7.17;;;23.90;46.90;;;;;;5021389;28;88676;-74
2022/05/06 07:25:57;;;;;;;13.87;6.97;;;23.90;46.90;;;;;;5022203;28;88488;-74
2022/05/06 07:28:26;;;;;;;8.67;5.77;;;24.00;46.90;;;;;;5021628;28;92938;-74
2022/05/06 07:30:54;;;;;;;10.40;6.67;;;23.90;46.90;;;;;;5021054;28;89335;-74
2022/05/06 07:33:23;;;;;;;9.77;5.90;;;24.00;46.90;;;;;;5020909;28;88759;-74
2022/05/06 07:35:52;;;;;;;11.67;6.13;;;24.00;46.90;;;;;;5021543;28;88376;-74
2022/05/06 07:38:20;;;;;;;12.77;6.23;;;24.00;46.90;;;;;;5021635;28;89695;-74
2022/05/06 07:40:48;;;;;;;17.83;7.27;;;24.00;46.80;;;;;;5020891;28;88742;-74
2022/05/06 07:43:16;;;;;;;13.20;6.63;;;24.00;46.80;;;;;;5021567;28;88770;-74
2022/05/06 07:45:44;;;;;;;10.47;6.03;;;24.00;46.80;;;;;;5021036;28;88687;-68
2022/05/06 07:48:13;;;;;;;10.30;6.03;;;24.00;46.80;;;;;;5020862;28;89310;-68
2022/05/06 07:50:45;;;;;;;9.23;5.43;;;24.00;46.80;;;;;;5020710;28;89020;-68
2022/05/06 07:53:13;;;;;;;12.57;6.23;;;24.00;46.80;;;;;;5021297;28;88878;-69
2022/05/06 07:55:48;;;;;;;11.10;6.00;;;24.10;46.80;;;;;;5020978;28;88596;-69
2022/05/06 07:58:16;;;;;;;11.67;5.87;;;24.10;46.80;;;;;;5021284;28;89255;-69
2022/05/06 08:00:44;;;;;;;10.13;6.33;;;24.10;46.80;;;;;;5020593;28;89118;-68
2022/05/06 08:06:02;;;;;;;10.13;5.70;;;24.10;46.70;;;;;;5021125;28;88739;-68
2022/05/06 08:08:30;;;;;;;8.30;4.80;;;24.00;46.60;;;;;;5020947;28;89667;-69
2022/05/06 08:10:59;;;;;;;7.47;5.27;;;24.00;46.70;;;;;;5020177;28;91198;-69
2022/05/06 08:13:27;;;;;;;7.03;4.63;;;24.00;46.60;;;;;;5021054;28;88276;-68
2022/05/06 08:15:57;;;;;;;8.33;5.30;;;24.00;46.60;;;;;;5021222;28;88430;-67
2022/05/06 08:18:26;;;;;;;7.27;5.27;;;24.00;46.60;;;;;;5020757;28;90545;-67
2022/05/06 08:20:54;;;;;;;9.37;4.80;;;24.00;46.60;;;;;;5020056;28;89199;-68
2022/05/06 08:23:23;;;;;;;4.80;4.20;;;24.00;46.50;;;;;;5020707;28;90226;-68
2022/05/06 08:25:51;;;;;;;9.07;4.63;;;24.00;46.50;;;;;;5020315;28;88741;-68
2022/05/06 08:28:20;;;;;;;6.57;4.80;;;24.00;46.50;;;;;;5024101;28;93674;-68
2022/05/06 08:30:48;;;;;;;9.37;5.10;;;24.00;46.50;;;;;;5029076;27;89077;-68
2022/05/06 08:33:16;;;;;;;6.10;4.27;;;24.00;47.10;;;;;;5020780;28;88588;-68
2022/05/06 08:35:44;;;;;;;7.07;4.53;;;24.00;46.40;;;;;;5021059;28;88703;-68
2022/05/06 08:38:12;;;;;;;7.00;4.60;;;24.00;46.40;;;;;;5020871;28;90803;-68
2022/05/06 08:40:41;;;;;;;8.70;4.43;;;24.00;46.40;;;;;;5020378;28;88625;-68
2022/05/06 08:43:09;;;;;;;8.23;4.07;;;24.00;46.40;;;;;;5020479;27;88886;-69
2022/05/06 08:51:08;;;;;;;7.37;4.27;;;24.00;46.30;;;;;;5012452;28;89072;-68
2022/05/06 08:53:38;;;;;;;5.43;3.63;;;24.00;46.30;;;;;;5020224;27;88339;-70
2022/05/06 08:56:08;;;;;;;5.83;3.13;;;24.00;46.30;;;;;;5019996;28;88572;-69
2022/05/06 08:58:37;;;;;;;4.83;3.07;;;24.00;46.20;;;;;;5020038;28;90777;-69
2022/05/06 09:01:07;;;;;;;5.33;4.00;;;24.00;46.20;;;;;;5019234;28;89137;-69
2022/05/06 09:03:43;;;;;;;5.27;3.53;;;24.10;46.30;;;;;;5019108;28;88889;-68
2022/05/06 09:06:17;;;;;;;5.17;3.53;;;24.10;46.30;;;;;;5020220;28;88599;-68
2022/05/06 09:08:46;;;;;;;5.93;3.63;;;24.10;46.30;;;;;;5006456;28;88521;-68
2022/05/06 09:11:17;;;;;;;4.40;3.43;;;24.10;46.30;;;;;;5000301;28;89262;-68
2022/05/06 09:13:52;;;;;;;4.17;2.93;;;24.10;46.30;;;;;;5020260;28;91458;-69
2022/05/06 09:19:18;;;;;;;3.43;2.73;;;24.10;46.20;;;;;;4999684;28;90729;-69
2022/05/06 09:22:04;;;;;;;4.40;3.20;;;24.10;46.20;;;;;;5007395;28;90171;-69
2022/05/06 09:24:32;;;;;;;4.10;3.03;;;24.10;46.30;;;;;;5018835;27;89013;-68
2022/05/06 09:27:03;;;;;;;5.10;2.90;;;24.10;46.20;;;;;;5018882;28;89273;-71
2022/05/06 09:29:33;;;;;;;5.03;2.80;;;24.10;46.30;;;;;;4999224;28;89631;-68
2022/05/06 09:32:19;;;;;;;2.73;2.20;;;24.10;46.30;;;;;;4999078;28;88712;-69
2022/05/06 09:34:49;;;;;;;4.37;2.63;;;24.20;46.40;;;;;;5013184;28;88487;-69
2022/05/06 09:37:29;;;;;;;4.63;2.80;;;24.20;46.40;;;;;;5019665;28;88613;-69
2022/05/06 09:40:05;;;;;;;3.70;2.40;;;24.20;46.50;;;;;;5019072;28;90673;-68
2022/05/06 09:42:35;;;;;;;2.63;2.17;;;24.20;46.40;;;;;;5018993;28;90214;-68
2022/05/06 09:45:03;;;;;;;4.00;2.40;;;24.20;46.40;;;;;;5011894;28;88510;-69
2022/05/06 09:47:32;;;;;;;4.70;2.57;;;24.20;46.30;;;;;;5018324;28;88330;-68
2022/05/06 09:50:00;;;;;;;2.83;2.50;;;24.20;46.20;;;;;;5010190;28;90250;-68
2022/05/06 09:52:28;;;;;;;4.83;2.50;;;24.20;46.20;;;;;;4998927;28;88423;-68
2022/05/06 09:54:57;;;;;;;4.57;2.23;;;24.20;46.10;;;;;;5004273;28;88969;-68
2022/05/06 09:57:25;;;;;;;3.77;2.10;;;24.30;46.20;;;;;;5006044;28;88594;-68
2022/05/06 09:59:55;;;;;;;2.90;2.10;;;24.30;46.10;;;;;;4999181;28;90825;-69
2022/05/06 10:02:23;;;;;;;3.07;2.03;;;24.30;46.10;;;;;;4999487;28;89604;-69
2022/05/06 10:04:51;;;;;;;3.33;1.90;;;24.30;46.10;;;;;;5014487;28;89727;-69
2022/05/06 10:07:19;;;;;;;2.33;2.03;;;24.30;46.00;;;;;;5018648;28;88335;-68
2022/05/06 10:09:54;;;;;;;3.67;2.40;;;24.30;46.00;;;;;;5022248;28;89720;-69
2022/05/06 10:13:18;;;;;;;2.70;1.90;;;24.30;46.00;;;;;;5003280;28;88660;-69
2022/05/06 10:16:15;;;;;;;3.20;1.93;;;24.30;46.00;;;;;;5016806;28;88505;-69
2022/05/06 10:18:43;;;;;;;3.50;2.20;;;24.30;45.90;;;;;;5003195;28;88644;-69
2022/05/06 10:21:12;;;;;;;2.67;2.07;;;24.40;45.90;;;;;;5002782;28;89504;-69
2022/05/06 10:23:47;;;;;;;3.13;2.10;;;24.40;45.90;;;;;;5003377;28;88820;-69
2022/05/06 10:26:40;;;;;;;3.03;2.27;;;24.40;45.90;;;;;;5004368;28;88438;-68
2022/05/06 10:35:11;;;;;;;3.23;2.03;;;24.40;45.80;;;;;;5009022;28;90694;-68
2022/05/06 10:37:40;;;;;;;2.60;2.00;;;24.40;45.90;;;;;;5021421;28;88892;-68
2022/05/06 10:40:29;;;;;;;3.27;2.13;;;24.40;45.80;;;;;;5020405;28;88435;-69
2022/05/06 10:42:57;;;;;;;78.23;26.20;;;24.40;45.80;;;;;;5020492;28;91740;-70
2022/05/06 10:45:26;;;;;;;36.50;15.37;;;24.50;45.90;;;;;;5021410;28;91020;-69
2022/05/06 10:47:56;;;;;;;29.37;13.13;;;24.60;46.10;;;;;;5020664;28;88700;-71
2022/05/06 10:50:29;;;;;;;25.33;12.10;;;24.60;46.10;;;;;;5019887;27;88746;-70
2022/05/06 10:52:57;;;;;;;23.23;10.17;;;24.70;46.20;;;;;;5018993;28;89528;-69
2022/05/06 10:55:26;;;;;;;22.83;9.17;;;24.70;46.20;;;;;;5020501;28;88569;-69
2022/05/06 10:57:57;;;;;;;25.33;7.97;;;24.80;46.20;;;;;;5003890;28;88563;-68
2022/05/06 11:00:27;;;;;;;26.07;8.00;;;24.80;46.20;;;;;;5002361;28;88849;-69
2022/05/06 11:02:59;;;;;;;23.10;7.73;;;24.80;46.20;;;;;;5005959;28;92266;-69
2022/05/06 11:05:29;;;;;;;15.63;6.53;;;24.80;46.30;;;;;;5002371;28;90230;-68
2022/05/06 11:08:01;;;;;;;67.50;30.50;;;24.90;46.40;;;;;;5007058;28;88410;-69
2022/05/06 11:10:31;;;;;;;48.97;21.83;;;24.90;46.40;;;;;;5009948;27;88663;-69
2022/05/06 11:13:19;;;;;;;35.87;15.17;;;25.00;46.50;;;;;;5008002;28;92704;-69
2022/05/06 11:15:48;;;;;;;22.57;12.83;;;25.10;46.50;;;;;;5020266;28;89007;-69
2022/05/06 11:18:18;;;;;;;21.47;9.97;;;25.10;46.40;;;;;;5021345;28;88371;-69
2022/05/06 11:20:46;;;;;;;21.73;8.40;;;25.10;46.40;;;;;;5019947;28;88477;-69
2022/05/06 11:23:14;;;;;;;17.87;7.00;;;25.20;46.30;;;;;;5021469;28;90726;-69
2022/05/06 11:25:44;;;;;;;13.03;6.30;;;25.20;46.20;;;;;;5020684;28;88983;-70
2022/05/06 11:28:13;;;;;;;10.83;4.50;;;25.10;46.10;;;;;;5021279;28;88451;-69
2022/05/06 11:30:43;;;;;;;9.67;5.13;;;25.20;46.00;;;;;;5021439;28;88489;-70
2022/05/06 11:33:23;;;;;;;6.90;4.47;;;25.20;45.90;;;;;;5020890;28;92637;-70
2022/05/06 11:35:53;;;;;;;6.53;4.17;;;25.20;45.90;;;;;;5021441;27;90494;-69
2022/05/06 11:38:32;;;;;;;11.07;4.00;;;25.20;45.80;;;;;;5021814;28;89933;-69
2022/05/06 11:41:10;;;;;;;6.53;4.10;;;25.20;45.80;;;;;;5021086;28;88725;-69
2022/05/06 11:43:38;;;;;;;5.80;3.53;;;25.20;45.70;;;;;;5004475;28;89695;-70
2022/05/06 11:48:53;;;;;;;4.63;2.93;;;25.30;45.60;;;;;;5001050;28;89840;-70
2022/05/06 11:51:23;;;;;;;5.23;2.77;;;25.30;45.50;;;;;;5005983;28;88603;-69
2022/05/06 11:53:51;;;;;;;4.93;2.63;;;25.30;45.40;;;;;;5004654;28;89756;-70
2022/05/06 11:56:22;;;;;;;5.83;2.90;;;25.30;45.30;;;;;;5001027;28;90804;-71
2022/05/06 11:58:51;;;;;;;4.13;2.70;;;25.30;45.20;;;;;;5001791;28;89703;-72
2022/05/06 12:01:28;;;;;;;3.47;2.57;;;25.30;45.20;;;;;;5002657;28;88626;-70
2022/05/06 12:04:02;;;;;;;3.87;2.37;;;25.30;45.10;;;;;;5007418;28;90731;-71
2022/05/06 12:06:37;;;;;;;3.57;2.20;;;25.40;45.20;;;;;;5009319;28;88277;-65
2022/05/06 12:09:09;;;;;;;4.27;2.60;;;25.40;45.10;;;;;;5000117;28;88917;-66
2022/05/06 12:11:37;;;;;;;4.70;2.40;;;25.40;45.20;;;;;;5003282;28;88695;-66
2022/05/06 12:14:06;;;;;;;3.33;2.63;;;25.50;45.40;;;;;;5004513;28;89562;-66
2022/05/06 12:16:34;;;;;;;3.53;2.20;;;25.50;45.40;;;;;;5004937;28;90233;-65
2022/05/06 12:19:04;;;;;;;4.90;2.20;;;25.50;45.40;;;;;;5017209;28;88397;-66
2022/05/06 12:21:33;;;;;;;5.37;2.67;;;25.60;45.50;;;;;;5020306;28;88461;-65
2022/05/06 12:24:02;;;;;;;3.67;2.13;;;25.50;45.40;;;;;;5012838;28;90367;-66
2022/05/06 12:26:39;;;;;;;3.53;1.93;;;25.60;45.40;;;;;;5009743;28;88906;-65
2022/05/06 12:29:19;;;;;;;5.37;2.70;;;25.60;45.40;;;;;;5017783;28;88407;-65
2022/05/06 12:31:48;;;;;;;3.13;1.97;;;25.60;45.30;;;;;;5018811;28;88437;-65
2022/05/06 12:34:17;;;;;;;2.93;2.40;;;25.60;45.20;;;;;;5015648;28;91979;-65
2022/05/06 12:36:46;;;;;;;4.37;2.13;;;25.60;45.20;;;;;;5014433;28;89192;-65
2022/05/06 12:39:21;;;;;;;3.53;2.13;;;25.60;45.10;;;;;;5019797;28;89964;-65
2022/05/06 12:41:49;;;;;;;4.80;2.40;;;25.60;45.70;;;;;;5010680;28;88610;-65
2022/05/06 12:44:19;;;;;;;2.40;2.17;;;25.60;45.00;;;;;;5014984;28;89931;-65
2022/05/06 12:46:47;;;;;;;2.87;2.20;;;25.70;45.00;;;;;;5014998;28;89755;-65
2022/05/06 12:52:04;;;;;;;4.47;2.20;;;25.70;44.90;;;;;;5006217;28;88558;-67
2022/05/06 12:54:32;;;;;;;3.50;2.30;;;25.60;44.80;;;;;;5006877;28;89508;-66
2022/05/06 12:57:00;;;;;;;2.73;2.13;;;25.70;44.90;;;;;;5013287;28;90042;-66
2022/05/06 12:59:28;;;;;;;3.97;2.60;;;25.70;44.80;;;;;;5001510;28;88834;-65
2022/05/06 13:01:56;;;;;;;5.90;2.70;;;25.70;44.90;;;;;;5012397;28;88400;-65
2022/05/06 13:04:26;;;;;;;3.73;2.07;;;25.70;44.80;;;;;;5020239;27;90469;-66
2022/05/06 13:06:53;;;;;;;4.33;2.17;;;25.70;44.80;;;;;;5014894;28;90243;-66
2022/05/06 13:09:21;;;;;;;1.90;1.67;;;25.70;44.70;;;;;;5018901;28;91590;-66
2022/05/06 13:11:49;;;;;;;2.47;2.00;;;25.60;44.60;;;;;;5009131;28;88656;-65
2022/05/06 13:14:17;;;;;;;3.07;2.53;;;25.70;44.70;;;;;;5006813;28;90806;-65
2022/05/06 13:16:45;;;;;;;4.20;2.33;;;25.60;44.60;;;;;;5018774;28;89152;-66
2022/05/06 13:19:14;;;;;;;2.83;2.30;;;25.60;44.50;;;;;;5019339;28;88356;-65
2022/05/06 13:21:43;;;;;;;2.53;2.27;;;25.60;44.50;;;;;;5018513;28;89662;-66
2022/05/06 13:24:11;;;;;;;3.50;2.00;;;25.70;44.60;;;;;;5006386;28;92266;-65
2022/05/06 13:26:39;;;;;;;2.80;2.20;;;25.70;44.50;;;;;;4998810;28;90495;-65
2022/05/06 13:29:13;;;;;;;3.20;2.50;;;25.70;44.40;;;;;;5017078;28;88670;-65
2022/05/06 13:31:41;;;;;;;4.40;2.00;;;25.70;44.30;;;;;;5010244;28;88634;-65
2022/05/06 13:34:09;;;;;;;3.67;2.40;;;25.70;44.90;;;;;;5016373;28;89589;-65
2022/05/06 13:36:38;;;;;;;5.13;2.37;;;25.70;44.20;;;;;;5018834;28;88991;-65